createdAt,value
2018-11-21T00:01:38.528Z,32.63
2018-11-21T00:04:07.747Z,35.30
2018-11-21T00:06:36.956Z,34.13
2018-11-21T00:09:08.433Z,33.87
2018-11-21T00:11:37.660Z,31.73
2018-11-21T00:14:09.865Z,32.03
2018-11-21T00:16:39.139Z,32.80
2018-11-21T00:19:08.943Z,33.70
2018-11-21T00:21:38.146Z,35.27
2018-11-21T00:24:09.792Z,34.57
2018-11-21T00:26:38.982Z,35.60
2018-11-21T00:29:08.642Z,33.73
2018-11-21T00:31:37.858Z,33.50
2018-11-21T00:34:07.162Z,33.63
2018-11-21T00:36:36.343Z,35.40
2018-11-21T00:39:08.309Z,35.73
2018-11-21T00:41:37.507Z,36.07
2018-11-21T00:44:06.704Z,35.67
2018-11-21T00:46:35.927Z,33.37
2018-11-21T00:49:05.354Z,36.73
2018-11-21T00:51:34.553Z,37.63
2018-11-21T00:54:03.806Z,36.20
2018-11-21T00:56:33.069Z,35.03
2018-11-21T00:59:03.640Z,35.33
2018-11-21T01:01:32.834Z,36.87
2018-11-21T01:04:02.009Z,35.37
2018-11-21T01:09:00.488Z,35.80
2018-11-21T01:11:29.770Z,37.43
2018-11-21T01:13:58.955Z,37.50
2018-11-21T01:16:28.159Z,36.03
2018-11-21T01:18:57.379Z,37.40
2018-11-21T01:21:26.597Z,36.93
2018-11-21T01:23:55.865Z,39.73
2018-11-21T01:26:25.594Z,37.93
2018-11-21T01:28:54.904Z,39.37
2018-11-21T01:31:26.133Z,40.47
2018-11-21T01:33:55.375Z,37.83
2018-11-21T01:36:26.147Z,39.60
2018-11-21T01:38:55.416Z,39.77
2018-11-21T01:41:24.607Z,37.67
2018-11-21T01:43:53.851Z,39.70
2018-11-21T01:46:23.099Z,39.93
2018-11-21T01:48:53.335Z,37.77
2018-11-21T01:51:22.838Z,38.20
2018-11-21T01:53:52.032Z,39.27
2018-11-21T01:56:21.333Z,38.20
2018-11-21T01:58:50.746Z,38.83
2018-11-21T02:01:20.058Z,36.20
2018-11-21T02:03:49.272Z,38.37
2018-11-21T02:06:18.465Z,39.20
2018-11-21T02:08:48.948Z,37.90
2018-11-21T02:11:18.142Z,39.30
2018-11-21T02:13:47.459Z,39.13
2018-11-21T02:16:16.623Z,38.57
2018-11-21T02:18:45.924Z,39.50
2018-11-21T02:21:15.096Z,39.37
2018-11-21T02:23:44.300Z,39.90
2018-11-21T02:26:13.552Z,39.23
2018-11-21T02:28:42.782Z,39.27
2018-11-21T02:31:12.060Z,39.77
2018-11-21T02:33:41.519Z,38.53
2018-11-21T02:36:10.780Z,37.90
2018-11-21T02:38:40.000Z,41.00
2018-11-21T02:41:09.240Z,38.53
2018-11-21T02:43:38.478Z,39.80
2018-11-21T02:46:07.705Z,39.50
2018-11-21T02:48:36.930Z,39.93
2018-11-21T02:51:06.125Z,39.37
2018-11-21T02:53:35.355Z,39.60
2018-11-21T02:56:04.540Z,39.80
2018-11-21T02:58:33.815Z,40.80
2018-11-21T03:01:03.054Z,39.67
2018-11-21T03:03:32.260Z,38.50
2018-11-21T03:06:01.507Z,38.07
2018-11-21T03:08:30.750Z,36.83
2018-11-21T03:10:59.973Z,38.70
2018-11-21T03:13:29.205Z,39.37
2018-11-21T03:15:58.406Z,37.67
2018-11-21T03:18:27.606Z,37.50
2018-11-21T03:20:56.824Z,38.17
2018-11-21T03:23:26.065Z,37.50
2018-11-21T03:25:56.616Z,38.83
2018-11-21T03:28:25.995Z,36.93
2018-11-21T03:30:55.231Z,37.87
2018-11-21T03:33:24.396Z,38.17
2018-11-21T03:35:54.074Z,37.33
2018-11-21T03:38:26.241Z,36.13
2018-11-21T03:40:55.457Z,36.80
2018-11-21T03:43:24.640Z,37.37
2018-11-21T03:45:53.907Z,38.53
2018-11-21T03:48:23.114Z,35.60
2018-11-21T03:50:52.378Z,37.00
2018-11-21T03:53:21.549Z,35.87
2018-11-21T03:55:50.816Z,35.23
2018-11-21T03:58:19.997Z,34.07
2018-11-21T04:00:49.224Z,35.87
2018-11-21T04:03:18.447Z,34.90
2018-11-21T04:05:47.685Z,34.03
2018-11-21T04:08:16.915Z,34.67
2018-11-21T04:10:46.228Z,33.70
2018-11-21T04:13:15.318Z,33.20
2018-11-21T04:15:44.575Z,31.80
2018-11-21T04:18:13.836Z,32.97
2018-11-21T04:20:43.051Z,32.60
2018-11-21T04:23:12.303Z,30.73
2018-11-21T04:25:41.489Z,31.73
2018-11-21T04:28:10.730Z,31.53
2018-11-21T04:30:39.928Z,29.67
2018-11-21T04:33:09.141Z,30.93
2018-11-21T04:35:38.448Z,31.97
2018-11-21T04:38:07.836Z,29.83
2018-11-21T04:40:37.098Z,31.20
2018-11-21T04:43:06.467Z,29.17
2018-11-21T04:45:35.684Z,31.53
2018-11-21T04:48:04.973Z,30.93
2018-11-21T04:50:34.226Z,30.03
2018-11-21T04:53:03.434Z,31.17
2018-11-21T04:55:35.552Z,30.87
2018-11-21T04:58:04.801Z,32.40
2018-11-21T05:00:34.048Z,29.03
2018-11-21T05:03:03.218Z,30.50
2018-11-21T05:05:34.857Z,30.40
2018-11-21T05:08:04.067Z,31.93
2018-11-21T05:10:33.299Z,29.87
2018-11-21T05:13:02.621Z,29.47
2018-11-21T05:15:34.708Z,30.37
2018-11-21T05:18:03.895Z,30.17
2018-11-21T05:20:33.107Z,28.53
2018-11-21T05:23:02.384Z,31.03
2018-11-21T05:25:31.605Z,29.30
2018-11-21T05:28:00.805Z,30.30
2018-11-21T05:30:30.031Z,29.53
2018-11-21T05:32:59.259Z,28.70
2018-11-21T05:35:28.504Z,31.20
2018-11-21T05:37:57.689Z,30.13
2018-11-21T05:40:26.928Z,31.03
2018-11-21T05:42:56.084Z,29.83
2018-11-21T05:45:25.318Z,29.73
2018-11-21T05:47:54.647Z,29.70
2018-11-21T05:50:23.803Z,29.63
2018-11-21T05:52:53.000Z,29.97
2018-11-21T05:55:22.210Z,29.50
2018-11-21T05:57:51.486Z,29.37
2018-11-21T06:00:20.730Z,28.73
2018-11-21T06:02:49.916Z,27.73
2018-11-21T06:05:19.272Z,30.03
2018-11-21T06:07:48.494Z,29.13
2018-11-21T06:10:17.811Z,29.93
2018-11-21T06:12:47.003Z,28.20
2018-11-21T06:15:18.910Z,28.80
2018-11-21T06:17:48.403Z,28.70
2018-11-21T06:20:17.378Z,28.43
2018-11-21T06:22:46.576Z,28.87
2018-11-21T06:25:15.887Z,28.13
2018-11-21T06:27:45.079Z,29.73
2018-11-21T06:30:15.059Z,29.43
2018-11-21T06:32:44.412Z,29.17
2018-11-21T06:35:13.808Z,29.97
2018-11-21T06:37:43.014Z,30.00
2018-11-21T06:40:14.180Z,29.77
2018-11-21T06:42:53.210Z,29.47
2018-11-21T06:45:23.772Z,28.80
2018-11-21T06:47:52.993Z,29.67
2018-11-21T06:50:22.431Z,30.33
2018-11-21T06:52:52.253Z,30.43
2018-11-21T06:55:21.443Z,30.13
2018-11-21T06:57:50.666Z,29.27
2018-11-21T07:00:19.880Z,30.70
2018-11-21T07:02:49.101Z,29.23
2018-11-21T07:05:18.287Z,30.73
2018-11-21T07:07:47.497Z,30.47
2018-11-21T07:10:17.193Z,30.53
2018-11-21T07:12:46.661Z,29.63
2018-11-21T07:15:15.844Z,29.43
2018-11-21T07:17:45.214Z,32.20
2018-11-21T07:20:14.359Z,31.43
2018-11-21T07:22:43.580Z,29.43
2018-11-21T07:25:17.898Z,30.33
2018-11-21T07:27:47.204Z,32.50
2018-11-21T07:30:17.258Z,31.57
2018-11-21T07:32:46.645Z,32.63
2018-11-21T07:35:18.067Z,32.50
2018-11-21T07:37:45.804Z,30.53
2018-11-21T07:40:15.861Z,31.27
2018-11-21T07:42:45.085Z,30.90
2018-11-21T07:45:15.268Z,30.20
2018-11-21T07:47:45.076Z,29.33
2018-11-21T07:50:16.447Z,30.77
2018-11-21T07:52:45.630Z,31.93
2018-11-21T07:55:15.057Z,30.63
2018-11-21T07:58:02.154Z,30.57
2018-11-21T08:00:43.737Z,29.77
2018-11-21T08:03:14.798Z,30.20
2018-11-21T08:05:45.306Z,30.17
2018-11-21T08:08:32.461Z,30.13
2018-11-21T08:11:32.747Z,29.93
2018-11-21T08:14:22.865Z,31.13
2018-11-21T08:17:26.578Z,31.27
2018-11-21T08:20:20.936Z,29.03
2018-11-21T08:23:15.166Z,29.93
2018-11-21T08:26:01.972Z,29.37
2018-11-21T08:28:32.070Z,30.53
2018-11-21T08:31:01.301Z,30.17
2018-11-21T08:33:33.968Z,30.17
2018-11-21T08:36:01.223Z,29.83
2018-11-21T08:38:30.525Z,30.57
2018-11-21T08:40:59.736Z,32.00
2018-11-21T08:43:28.939Z,33.83
2018-11-21T08:45:58.146Z,33.90
2018-11-21T08:48:27.477Z,32.43
2018-11-21T08:50:56.693Z,30.37
2018-11-21T08:53:25.859Z,30.27
2018-11-21T08:55:55.079Z,32.00
2018-11-21T08:58:24.292Z,31.60
2018-11-21T09:00:53.538Z,33.93
2018-11-21T09:03:22.724Z,33.80
2018-11-21T09:05:52.052Z,31.93
2018-11-21T09:08:21.664Z,33.83
2018-11-21T09:10:51.320Z,31.87
2018-11-21T09:13:20.607Z,32.87
2018-11-21T09:15:49.803Z,31.03
2018-11-21T09:18:20.013Z,30.93
2018-11-21T09:20:49.260Z,31.67
2018-11-21T09:23:18.562Z,30.60
2018-11-21T09:25:47.709Z,31.13
2018-11-21T09:28:16.878Z,29.13
2018-11-21T09:30:46.174Z,29.83
2018-11-21T09:33:15.377Z,29.77
2018-11-21T09:35:44.558Z,29.73
2018-11-21T09:38:13.804Z,30.03
2018-11-21T09:40:43.005Z,30.90
2018-11-21T09:43:12.281Z,27.07
2018-11-21T09:45:41.455Z,28.60
2018-11-21T09:48:10.687Z,27.83
2018-11-21T09:50:39.862Z,29.40
2018-11-21T09:53:09.074Z,29.27
2018-11-21T09:55:40.363Z,27.60
2018-11-21T09:58:07.551Z,27.83
2018-11-21T10:01:14.933Z,27.43
2018-11-21T10:03:44.167Z,25.77
2018-11-21T10:06:19.138Z,27.30
2018-11-21T10:08:49.903Z,26.60
2018-11-21T10:11:19.548Z,28.80
2018-11-21T10:13:48.828Z,27.63
2018-11-21T10:16:18.050Z,27.67
2018-11-21T10:18:50.568Z,27.77
2018-11-21T10:21:21.495Z,29.40
2018-11-21T10:23:50.647Z,28.40
2018-11-21T10:26:19.883Z,29.00
2018-11-21T10:28:49.910Z,28.03
2018-11-21T10:31:19.100Z,28.33
2018-11-21T10:33:48.355Z,28.77
2018-11-21T10:36:17.546Z,29.43
2018-11-21T10:38:46.801Z,30.47
2018-11-21T10:41:16.002Z,27.77
2018-11-21T10:43:45.258Z,29.37
2018-11-21T10:46:14.747Z,28.97
2018-11-21T10:48:43.945Z,29.57
2018-11-21T10:51:13.908Z,29.40
2018-11-21T10:53:42.500Z,29.23
2018-11-21T10:56:11.696Z,27.90
2018-11-21T10:58:40.890Z,29.30
2018-11-21T11:01:47.248Z,28.87
2018-11-21T11:04:24.871Z,28.00
2018-11-21T11:07:11.880Z,29.30
2018-11-21T11:10:00.265Z,28.47
2018-11-21T11:12:49.521Z,27.33
2018-11-21T11:15:38.132Z,28.27
2018-11-21T11:18:35.347Z,27.23
2018-11-21T11:21:42.076Z,28.27
2018-11-21T11:24:28.916Z,27.53
2018-11-21T11:27:15.956Z,29.17
2018-11-21T11:30:10.121Z,28.53
2018-11-21T11:33:07.403Z,29.80
2018-11-21T11:36:01.796Z,31.17
2018-11-21T11:38:56.298Z,28.03
2018-11-21T11:41:47.580Z,28.03
2018-11-21T11:44:54.145Z,27.27
2018-11-21T11:47:45.272Z,26.73
2018-11-21T11:50:32.193Z,26.23
2018-11-21T11:53:14.225Z,26.03
2018-11-21T11:56:01.137Z,27.43
2018-11-21T11:58:49.519Z,26.77
2018-11-21T12:01:37.912Z,25.87
2018-11-21T12:04:41.520Z,26.20
2018-11-21T12:07:28.509Z,28.13
2018-11-21T12:10:15.354Z,27.43
2018-11-21T12:13:15.738Z,26.57
2018-11-21T12:16:17.012Z,27.13
2018-11-21T12:19:14.316Z,28.17
2018-11-21T12:22:03.009Z,27.80
2018-11-21T12:24:51.341Z,28.03
2018-11-21T12:27:42.796Z,27.33
2018-11-21T12:30:29.773Z,29.23
2018-11-21T12:33:16.823Z,28.50
2018-11-21T12:36:03.656Z,28.63
2018-11-21T12:38:50.624Z,27.63
2018-11-21T12:41:45.714Z,27.70
2018-11-21T12:44:36.624Z,29.40
2018-11-21T12:47:23.655Z,27.70
2018-11-21T12:50:30.420Z,28.53
2018-11-21T12:53:17.451Z,27.00
2018-11-21T12:55:52.849Z,26.93
2018-11-21T12:58:46.803Z,27.23
2018-11-21T13:01:53.483Z,27.73
2018-11-21T13:04:44.758Z,28.10
2018-11-21T13:07:39.002Z,28.63
2018-11-21T13:10:25.765Z,27.90
2018-11-21T13:13:14.723Z,29.40
2018-11-21T13:16:03.031Z,28.93
2018-11-21T13:18:50.278Z,29.53
2018-11-21T13:21:39.441Z,31.50
2018-11-21T13:24:26.578Z,30.73
2018-11-21T13:27:30.184Z,31.07
2018-11-21T13:30:22.266Z,29.00
2018-11-21T13:33:20.187Z,29.60
2018-11-21T13:36:06.972Z,30.07
2018-11-21T13:38:54.171Z,30.47
2018-11-21T13:41:41.255Z,30.33
2018-11-21T13:44:21.920Z,33.33
2018-11-21T13:47:18.435Z,33.43
2018-11-21T13:50:05.320Z,33.77
2018-11-21T13:53:02.766Z,35.27
2018-11-21T13:55:32.002Z,32.03
2018-11-21T13:58:01.177Z,32.60
2018-11-21T14:00:30.383Z,35.83
2018-11-21T14:02:59.655Z,35.63
2018-11-21T14:05:28.904Z,37.73
2018-11-21T14:07:58.209Z,36.93
2018-11-21T14:10:27.386Z,36.70
2018-11-21T14:12:58.598Z,34.53
2018-11-21T14:15:27.844Z,36.90
2018-11-21T14:17:57.057Z,35.60
2018-11-21T14:20:26.305Z,34.43
2018-11-21T14:22:55.488Z,34.50
2018-11-21T14:25:25.100Z,36.20
2018-11-21T14:27:54.393Z,35.73
2018-11-21T14:30:23.559Z,35.00
2018-11-21T14:32:52.774Z,35.33
2018-11-21T14:35:22.086Z,34.43
2018-11-21T14:37:51.369Z,33.60
2018-11-21T14:40:20.643Z,34.47
2018-11-21T14:42:49.850Z,34.03
2018-11-21T14:45:19.628Z,33.77
2018-11-21T14:47:51.377Z,34.07
2018-11-21T14:50:25.837Z,32.73
2018-11-21T14:52:55.082Z,34.50
2018-11-21T14:55:24.324Z,33.83
2018-11-21T14:57:53.505Z,34.67
2018-11-21T15:00:23.237Z,34.23
2018-11-21T15:02:52.482Z,34.23
2018-11-21T15:05:21.668Z,34.90
2018-11-21T15:07:50.910Z,36.67
2018-11-21T15:10:20.208Z,35.07
2018-11-21T15:12:49.531Z,35.00
2018-11-21T15:15:19.952Z,35.47
2018-11-21T15:17:49.191Z,34.37
2018-11-21T15:20:20.192Z,33.53
2018-11-21T15:22:49.480Z,33.43
2018-11-21T15:25:20.428Z,33.43
2018-11-21T15:27:49.962Z,32.93
2018-11-21T15:30:22.916Z,34.07
2018-11-21T15:32:52.131Z,33.27
2018-11-21T15:35:21.546Z,32.57
2018-11-21T15:37:51.042Z,32.97
2018-11-21T15:40:24.536Z,33.83
2018-11-21T15:42:53.894Z,32.53
2018-11-21T15:45:24.156Z,33.60
2018-11-21T15:47:55.204Z,34.07
2018-11-21T15:50:24.490Z,33.73
2018-11-21T15:52:53.729Z,35.83
2018-11-21T15:55:23.067Z,36.10
2018-11-21T15:57:52.277Z,35.33
2018-11-21T16:00:23.957Z,36.57
2018-11-21T16:02:55.402Z,38.03
2018-11-21T16:05:24.928Z,36.17
2018-11-21T16:07:54.146Z,37.30
2018-11-21T16:10:25.281Z,35.37
2018-11-21T16:12:54.483Z,36.10
2018-11-21T16:15:25.559Z,35.67
2018-11-21T16:17:54.739Z,35.70
2018-11-21T16:20:24.019Z,35.43
2018-11-21T16:22:53.203Z,34.90
2018-11-21T16:25:22.881Z,36.50
2018-11-21T16:27:52.092Z,35.30
2018-11-21T16:30:23.026Z,34.97
2018-11-21T16:32:52.297Z,35.10
2018-11-21T16:35:21.477Z,33.63
2018-11-21T16:37:50.886Z,32.47
2018-11-21T16:40:21.992Z,31.30
2018-11-21T16:42:51.911Z,32.13
2018-11-21T16:45:23.157Z,30.40
2018-11-21T16:47:52.509Z,29.83
2018-11-21T16:50:22.177Z,31.43
2018-11-21T16:52:51.538Z,31.20
2018-11-21T16:55:22.323Z,31.43
2018-11-21T16:57:52.181Z,32.10
2018-11-21T17:00:23.178Z,32.00
2018-11-21T17:02:52.346Z,32.37
2018-11-21T17:05:22.579Z,33.27
2018-11-21T17:07:51.833Z,33.13
2018-11-21T17:10:22.602Z,34.97
2018-11-21T17:12:51.891Z,33.00
2018-11-21T17:15:22.620Z,34.20
2018-11-21T17:17:51.862Z,34.07
2018-11-21T17:20:22.637Z,35.77
2018-11-21T17:22:53.441Z,35.03
2018-11-21T17:25:24.368Z,35.93
2018-11-21T17:27:53.564Z,37.87
2018-11-21T17:30:23.545Z,35.67
2018-11-21T17:32:52.880Z,37.33
2018-11-21T17:35:22.469Z,36.37
2018-11-21T17:37:52.294Z,36.80
2018-11-21T17:40:24.659Z,36.43
2018-11-21T17:42:54.177Z,35.87
2018-11-21T17:45:23.537Z,37.60
2018-11-21T17:47:52.892Z,38.20
2018-11-21T17:50:23.301Z,38.80
2018-11-21T17:52:57.142Z,38.83
2018-11-21T17:55:27.861Z,37.80
2018-11-21T17:57:57.114Z,40.03
2018-11-21T18:00:27.688Z,39.27
2018-11-21T18:02:56.872Z,38.67
2018-11-21T18:05:27.910Z,38.53
2018-11-21T18:07:57.141Z,40.07
2018-11-21T18:10:28.253Z,40.13
2018-11-21T18:12:57.568Z,37.60
2018-11-21T18:15:26.823Z,37.67
2018-11-21T18:17:56.094Z,40.60
2018-11-21T18:20:25.311Z,38.17
2018-11-21T18:22:54.515Z,39.67
2018-11-21T18:25:28.575Z,39.40
2018-11-21T18:27:58.098Z,39.47
2018-11-21T18:30:27.670Z,38.90
2018-11-21T18:32:57.090Z,39.37
2018-11-21T18:35:28.810Z,39.90
2018-11-21T18:37:58.022Z,39.33
2018-11-21T18:40:28.672Z,38.43
2018-11-21T18:42:57.940Z,39.13
2018-11-21T18:45:33.508Z,40.13
2018-11-21T18:48:02.741Z,40.10
2018-11-21T18:50:32.006Z,40.67
2018-11-21T18:53:02.262Z,40.07
2018-11-21T18:55:36.757Z,38.90
2018-11-21T18:58:30.031Z,39.10
2018-11-21T19:00:59.295Z,38.20
2018-11-21T19:03:28.483Z,38.70
2018-11-21T19:05:57.703Z,38.53
2018-11-21T19:08:27.027Z,39.57
2018-11-21T19:10:56.262Z,39.77
2018-11-21T19:13:26.525Z,42.13
2018-11-21T19:15:55.712Z,40.07
2018-11-21T19:18:24.880Z,40.43
2018-11-21T19:20:54.123Z,40.60
2018-11-21T19:23:23.366Z,39.90
2018-11-21T19:25:52.569Z,37.83
2018-11-21T19:28:21.763Z,39.27
2018-11-21T19:30:51.055Z,39.77
2018-11-21T19:33:20.312Z,39.23
2018-11-21T19:35:49.581Z,39.43
2018-11-21T19:38:18.765Z,41.77
2018-11-21T19:40:47.976Z,39.87
2018-11-21T19:43:17.224Z,40.73
2018-11-21T19:45:46.463Z,40.27
2018-11-21T19:48:15.652Z,40.83
2018-11-21T19:50:44.884Z,39.63
2018-11-21T19:53:14.170Z,41.37
2018-11-21T19:55:43.379Z,40.97
2018-11-21T19:58:12.707Z,40.73
2018-11-21T20:00:41.909Z,40.47
2018-11-21T20:03:11.153Z,39.33
2018-11-21T20:05:40.348Z,40.17
2018-11-21T20:08:09.573Z,39.87
2018-11-21T20:10:38.912Z,39.30
2018-11-21T20:13:08.154Z,39.37
2018-11-21T20:15:37.357Z,39.20
2018-11-21T20:18:06.617Z,39.73
2018-11-21T20:20:36.218Z,40.27
2018-11-21T20:23:06.562Z,39.73
2018-11-21T20:25:34.657Z,39.67
2018-11-21T20:28:04.195Z,39.50
2018-11-21T20:30:38.038Z,40.83
2018-11-21T20:33:07.258Z,40.10
2018-11-21T20:35:36.836Z,37.70
2018-11-21T20:38:07.024Z,37.43
2018-11-21T20:40:37.464Z,37.27
2018-11-21T20:43:06.627Z,37.97
2018-11-21T20:45:35.803Z,38.87
2018-11-21T20:48:05.119Z,37.70
2018-11-21T20:50:34.514Z,36.80
2018-11-21T20:53:03.727Z,36.17
2018-11-21T20:55:33.581Z,37.87
2018-11-21T20:58:02.797Z,37.67
2018-11-21T21:00:32.403Z,37.03
2018-11-21T21:03:01.657Z,36.27
2018-11-21T21:05:30.890Z,36.77
2018-11-21T21:08:00.128Z,37.70
2018-11-21T21:10:31.361Z,37.30
2018-11-21T21:13:00.472Z,36.63
2018-11-21T21:15:29.684Z,37.20
2018-11-21T21:17:58.911Z,35.77
2018-11-21T21:20:28.639Z,37.10
2018-11-21T21:22:58.990Z,37.53
2018-11-21T21:25:29.440Z,36.63
2018-11-21T21:27:58.834Z,37.40
2018-11-21T21:30:29.645Z,37.80
2018-11-21T21:32:59.262Z,36.80
2018-11-21T21:35:29.821Z,36.03
2018-11-21T21:37:59.049Z,36.43
2018-11-21T21:40:28.295Z,35.87
2018-11-21T21:42:57.574Z,36.63
2018-11-21T21:45:28.534Z,36.70
2018-11-21T21:47:57.743Z,37.67
2018-11-21T21:50:28.574Z,39.00
2018-11-21T21:52:57.836Z,38.10
2018-11-21T21:55:31.097Z,37.97
2018-11-21T21:58:00.846Z,37.70
2018-11-21T22:00:30.413Z,37.87
2018-11-21T22:03:00.586Z,38.97
2018-11-21T22:05:30.113Z,38.97
2018-11-21T22:07:59.281Z,38.43
2018-11-21T22:10:28.536Z,36.80
2018-11-21T22:12:57.793Z,38.43
2018-11-21T22:15:28.314Z,38.00
2018-11-21T22:17:59.174Z,38.53
2018-11-21T22:20:28.397Z,38.67
2018-11-21T22:22:57.658Z,38.23
2018-11-21T22:25:26.935Z,37.67
2018-11-21T22:27:56.121Z,38.60
2018-11-21T22:30:25.823Z,39.67
2018-11-21T22:32:55.772Z,39.87
2018-11-21T22:35:26.723Z,36.93
2018-11-21T22:37:55.929Z,39.80
2018-11-21T22:40:25.441Z,37.83
2018-11-21T22:42:54.606Z,38.43
2018-11-21T22:45:24.258Z,38.73
2018-11-21T22:47:53.458Z,40.13
2018-11-21T22:50:23.844Z,37.77
2018-11-21T22:52:53.144Z,40.53
2018-11-21T22:55:22.939Z,38.97
2018-11-21T22:57:52.888Z,39.67
2018-11-21T23:00:24.538Z,38.07
2018-11-21T23:02:53.794Z,39.83
2018-11-21T23:05:23.004Z,38.23
2018-11-21T23:07:52.212Z,38.17
2018-11-21T23:10:27.080Z,39.30
2018-11-21T23:12:56.673Z,39.63
2018-11-21T23:15:25.903Z,39.73
2018-11-21T23:17:55.077Z,38.13
2018-11-21T23:20:24.295Z,38.97
2018-11-21T23:22:53.636Z,38.13
2018-11-21T23:25:22.807Z,38.33
2018-11-21T23:27:52.091Z,39.37
2018-11-21T23:30:21.260Z,38.87
2018-11-21T23:32:50.540Z,36.90
2018-11-21T23:35:20.727Z,37.67
2018-11-21T23:37:49.895Z,37.50
2018-11-21T23:40:19.136Z,38.80
2018-11-21T23:42:49.961Z,36.60
2018-11-21T23:45:19.196Z,37.13
2018-11-21T23:47:48.444Z,38.03
2018-11-21T23:50:18.674Z,38.10
2018-11-21T23:52:47.913Z,39.23
2018-11-21T23:55:18.712Z,38.83
2018-11-21T23:57:48.351Z,40.07
